Time;durP1;ratioP1;P1;durP2;ratioP2;P2;SDS_P1;SDS_P2;PMS_P1;PMS_P2;Temp;Humidity;BMP_temperature;BMP_pressure;BME280_temperature;BME280_humidity;BME280_pressure;Samples;Min_cycle;Max_cycle;Signal;HPM_P1;HPM_P2
2024/01/03 00:00:45;;;;;;;25.40;14.30;;;;;;;4.75;100.00;98809.38;105611;1261;97804;-79
2024/01/03 00:03:41;;;;;;;26.70;15.70;;;;;;;4.75;100.00;98801.42;105579;1257;96621;-80
2024/01/03 00:06:33;;;;;;;31.50;16.00;;;;;;;4.75;100.00;98799.55;105773;1263;97204;-79
2024/01/03 00:09:18;;;;;;;28.40;15.10;;;;;;;4.77;100.00;98798.83;106440;1261;99999;-80
2024/01/03 00:12:04;;;;;;;28.00;15.70;;;;;;;4.77;100.00;98790.95;106046;1261;99787;-79
2024/01/03 00:14:51;;;;;;;28.30;16.10;;;;;;;4.77;100.00;98787.69;106294;1258;97722;-80
2024/01/03 00:17:36;;;;;;;31.80;16.80;;;;;;;4.76;100.00;98783.36;105671;1263;97174;-79
2024/01/03 00:20:22;;;;;;;22.40;14.40;;;;;;;4.77;100.00;98783.08;106433;1258;97150;-80
2024/01/03 00:23:12;;;;;;;26.60;15.70;;;;;;;4.77;100.00;98777.93;105754;1262;100106;-82
2024/01/03 00:25:58;;;;;;;25.90;16.30;;;;;;;4.75;100.00;98767.55;106123;1258;99112;-80
2024/01/03 00:28:44;;;;;;;27.80;15.00;;;;;;;4.73;100.00;98757.83;105627;1259;98781;-78
2024/01/03 00:31:41;;;;;;;30.60;16.10;;;;;;;4.71;100.00;98758.23;105506;1263;96617;-80
2024/01/03 00:34:39;;;;;;;27.30;15.60;;;;;;;4.67;100.00;98754.24;106001;1263;97072;-80
2024/01/03 00:37:26;;;;;;;27.60;15.50;;;;;;;4.65;100.00;98750.69;106548;1258;101347;-80
2024/01/03 00:40:30;;;;;;;29.10;16.70;;;;;;;4.65;100.00;98751.52;106129;1261;100851;-80
2024/01/03 00:43:16;;;;;;;26.50;15.80;;;;;;;4.63;100.00;98743.83;105997;1260;99082;-80
2024/01/03 00:46:02;;;;;;;29.20;16.70;;;;;;;4.62;100.00;98734.95;106472;1256;96623;-80
2024/01/03 00:48:48;;;;;;;27.70;15.50;;;;;;;4.62;100.00;98730.55;106577;1261;96633;-81
2024/01/03 00:51:34;;;;;;;30.70;17.90;;;;;;;4.63;100.00;98730.08;106407;1263;100995;-81
2024/01/03 00:54:22;;;;;;;54.60;34.80;;;;;;;4.64;100.00;98726.37;106602;1260;99302;-80
2024/01/03 00:57:08;;;;;;;55.50;30.40;;;;;;;4.63;100.00;98720.45;106694;1260;97763;-81
2024/01/03 00:59:53;;;;;;;38.70;20.50;;;;;;;4.60;100.00;98714.80;106037;1263;96548;-80
2024/01/03 01:02:39;;;;;;;37.00;19.50;;;;;;;4.58;100.00;98710.70;106536;1261;96398;-80
2024/01/03 01:05:25;;;;;;;36.80;19.30;;;;;;;4.56;100.00;98703.31;106556;1257;100687;-80
2024/01/03 01:08:10;;;;;;;34.00;17.40;;;;;;;4.57;100.00;98697.40;106589;1269;100381;-79
2024/01/03 01:10:56;;;;;;;28.50;17.30;;;;;;;4.57;100.00;98696.35;105605;1264;99080;-78
2024/01/03 01:13:42;;;;;;;29.70;16.50;;;;;;;4.57;100.00;98695.40;105661;1259;96709;-79
2024/01/03 01:16:28;;;;;;;31.40;18.00;;;;;;;4.57;100.00;98687.85;105622;1262;97130;-78
2024/01/03 01:19:14;;;;;;;30.20;17.90;;;;;;;4.57;100.00;98681.66;105597;1263;100023;-79
2024/01/03 01:21:59;;;;;;;32.90;18.40;;;;;;;4.56;100.00;98681.09;105800;1257;99157;-78
2024/01/03 01:24:45;;;;;;;32.40;18.90;;;;;;;4.55;100.00;98675.40;105537;1260;98902;-78
2024/01/03 01:27:31;;;;;;;31.00;17.00;;;;;;;4.55;100.00;98667.81;105245;1262;97180;-79
2024/01/03 01:30:16;;;;;;;29.90;17.80;;;;;;;4.54;100.00;98659.24;105709;1260;98047;-79
2024/01/03 01:33:01;;;;;;;30.80;18.70;;;;;;;4.54;100.00;98655.77;105895;1259;100034;-78
2024/01/03 01:35:47;;;;;;;31.50;17.60;;;;;;;4.52;100.00;98656.13;105789;1260;99156;-80
2024/01/03 01:38:33;;;;;;;31.80;18.60;;;;;;;4.51;100.00;98651.27;106175;1261;98431;-80
2024/01/03 01:41:18;;;;;;;32.20;18.60;;;;;;;4.52;100.00;98648.95;106227;1258;96554;-79
2024/01/03 01:44:05;;;;;;;33.70;18.30;;;;;;;4.54;100.00;98646.52;105671;1257;97495;-79
2024/01/03 01:46:52;;;;;;;34.30;19.10;;;;;;;4.55;100.00;98641.43;105751;1263;99999;-79
2024/01/03 01:49:41;;;;;;;33.70;18.00;;;;;;;4.55;100.00;98636.56;105765;1257;100723;-80
2024/01/03 01:52:27;;;;;;;34.30;18.70;;;;;;;4.52;100.00;98633.17;105574;1261;99595;-79
2024/01/03 01:55:12;;;;;;;30.50;18.20;;;;;;;4.50;100.00;98631.77;105684;1271;96593;-79
2024/01/03 01:57:58;;;;;;;34.90;18.30;;;;;;;4.50;100.00;98626.30;105684;1257;96541;-79
2024/01/03 02:00:43;;;;;;;36.30;19.10;;;;;;;4.50;100.00;98619.13;105642;1261;100090;-78
2024/01/03 02:03:29;;;;;;;33.00;17.10;;;;;;;4.50;100.00;98615.53;105686;1268;99476;-79
2024/01/03 02:06:15;;;;;;;36.40;19.30;;;;;;;4.52;100.00;98610.08;105993;1264;99345;-80
2024/01/03 02:09:01;;;;;;;30.10;17.00;;;;;;;4.51;100.00;98604.66;106000;1258;96616;-80
2024/01/03 02:11:48;;;;;;;32.00;18.50;;;;;;;4.53;100.00;98603.40;106064;1260;96334;-80
2024/01/03 02:14:33;;;;;;;33.20;17.80;;;;;;;4.52;100.00;98602.39;105826;1260;100719;-78
2024/01/03 02:17:20;;;;;;;27.10;16.70;;;;;;;4.52;100.00;98594.96;105637;1258;99668;-80
2024/01/03 02:20:06;;;;;;;29.80;16.80;;;;;;;4.50;100.00;98589.35;106141;1260;99060;-80
2024/01/03 02:22:52;;;;;;;34.00;17.90;;;;;;;4.50;100.00;98585.73;106085;1260;96752;-80
2024/01/03 02:25:39;;;;;;;28.20;17.60;;;;;;;4.48;100.00;98584.33;105762;1257;97140;-80
2024/01/03 02:28:25;;;;;;;28.60;18.00;;;;;;;4.47;100.00;98579.39;105705;1260;100256;-80
2024/01/03 02:31:11;;;;;;;28.00;18.20;;;;;;;4.48;100.00;98573.31;106601;1259;99164;-80
2024/01/03 02:33:57;;;;;;;28.10;17.60;;;;;;;4.49;100.00;98569.11;105994;1257;98493;-79
2024/01/03 02:36:43;;;;;;;30.20;17.70;;;;;;;4.50;100.00;98567.14;106046;1258;96628;-78
2024/01/03 02:39:28;;;;;;;27.00;16.00;;;;;;;4.50;100.00;98565.62;106399;1258;97056;-81
2024/01/03 02:42:13;;;;;;;26.00;16.70;;;;;;;4.50;100.00;98558.69;106206;1260;100692;-80
2024/01/03 02:44:59;;;;;;;27.30;17.30;;;;;;;4.50;100.00;98556.45;105988;1263;99095;-80
2024/01/03 02:47:45;;;;;;;28.80;16.90;;;;;;;4.50;100.00;98551.91;105986;1271;97772;-80
2024/01/03 02:50:31;;;;;;;27.90;15.30;;;;;;;4.50;100.00;98547.39;106448;1260;96502;-80
2024/01/03 02:53:16;;;;;;;27.60;17.60;;;;;;;4.49;100.00;98541.39;106068;1258;97252;-78
2024/01/03 02:56:02;;;;;;;35.40;19.70;;;;;;;4.47;100.00;98540.33;106073;1257;100078;-85
2024/01/03 02:58:48;;;;;;;29.90;19.20;;;;;;;4.47;100.00;98533.55;105830;1258;100347;-79
2024/01/03 03:01:34;;;;;;;33.20;20.80;;;;;;;4.49;100.00;98529.10;105585;1257;97803;-78
2024/01/03 03:04:19;;;;;;;31.10;18.80;;;;;;;4.50;100.00;98523.52;105661;1261;97088;-79
2024/01/03 03:07:05;;;;;;;25.30;17.10;;;;;;;4.51;100.00;98520.59;105616;1261;96549;-80
2024/01/03 03:09:50;;;;;;;28.00;15.30;;;;;;;4.49;100.00;98513.94;105649;1260;100015;-78
2024/01/03 03:12:36;;;;;;;23.90;14.00;;;;;;;4.45;100.00;98512.38;105710;1257;100388;-79
2024/01/03 03:15:21;;;;;;;26.90;16.10;;;;;;;4.44;100.00;98507.14;105680;1257;98026;-80
2024/01/03 03:18:07;;;;;;;30.50;16.80;;;;;;;4.44;100.00;98503.93;105672;1260;96615;-79
2024/01/03 03:20:53;;;;;;;25.20;15.70;;;;;;;4.43;100.00;98502.54;105717;1256;97050;-78
2024/01/03 03:23:40;;;;;;;27.10;17.30;;;;;;;4.42;100.00;98497.00;105667;1261;101284;-80
2024/01/03 03:26:25;;;;;;;23.60;15.80;;;;;;;4.43;100.00;98493.00;105567;1257;99299;-79
2024/01/03 03:29:11;;;;;;;25.00;15.40;;;;;;;4.44;100.00;98490.30;105529;1257;153869;-79
2024/01/03 03:31:57;;;;;;;23.10;14.30;;;;;;;4.45;100.00;98485.54;105680;1261;96592;-79
2024/01/03 03:34:42;;;;;;;23.60;15.40;;;;;;;4.43;100.00;98480.42;105690;1258;97928;-79
2024/01/03 03:37:28;;;;;;;24.30;15.40;;;;;;;4.43;100.00;98473.99;105615;1260;101326;-79
2024/01/03 03:40:14;;;;;;;24.30;15.30;;;;;;;4.44;100.00;98467.77;105623;1260;99115;-79
2024/01/03 03:42:59;;;;;;;22.20;13.70;;;;;;;4.44;100.00;98466.86;105735;1261;98749;-78
2024/01/03 03:45:45;;;;;;;25.40;14.60;;;;;;;4.43;100.00;98462.29;105638;1259;96635;-80
2024/01/03 03:48:31;;;;;;;24.40;14.30;;;;;;;4.44;100.00;98456.13;105601;1260;97133;-80
2024/01/03 03:51:18;;;;;;;24.80;16.00;;;;;;;4.44;100.00;98453.81;106015;1257;100747;-78
2024/01/03 03:54:03;;;;;;;22.70;15.50;;;;;;;4.44;100.00;98448.67;105822;1260;99268;-81
2024/01/03 03:56:49;;;;;;;25.60;14.70;;;;;;;4.43;100.00;98445.33;105517;1257;97734;-79
2024/01/03 03:59:34;;;;;;;24.20;15.20;;;;;;;4.42;100.00;98442.95;105716;1264;97969;-80
2024/01/03 04:02:20;;;;;;;21.80;14.60;;;;;;;4.42;100.00;98439.24;105662;1257;97224;-79
2024/01/03 04:05:06;;;;;;;23.70;13.60;;;;;;;4.40;100.00;98438.19;105637;1260;100016;-79
2024/01/03 04:07:52;;;;;;;27.10;15.20;;;;;;;4.40;100.00;98437.73;105706;1257;100563;-79
2024/01/03 04:10:37;;;;;;;25.30;16.00;;;;;;;4.41;100.00;98434.77;105601;1260;99385;-80
2024/01/03 04:13:23;;;;;;;23.90;13.30;;;;;;;4.44;100.00;98428.90;106201;1257;97071;-79
2024/01/03 04:16:09;;;;;;;21.70;12.70;;;;;;;4.44;100.00;98424.86;105714;1260;97234;-80
2024/01/03 04:18:55;;;;;;;23.60;12.70;;;;;;;4.43;100.00;98421.83;105708;1261;101258;-80
2024/01/03 04:21:40;;;;;;;22.70;13.40;;;;;;;4.43;100.00;98416.42;105515;1257;100532;-79
2024/01/03 04:24:26;;;;;;;19.10;12.50;;;;;;;4.43;100.00;98418.62;105847;1260;99026;-79
2024/01/03 04:27:12;;;;;;;24.40;13.50;;;;;;;4.44;100.00;98414.94;105739;1261;97291;-79
2024/01/03 04:29:57;;;;;;;21.70;12.90;;;;;;;4.44;100.00;98408.05;105994;1257;97160;-80
2024/01/03 04:32:43;;;;;;;22.50;13.70;;;;;;;4.44;100.00;98408.42;105992;1257;100060;-80
2024/01/03 04:35:29;;;;;;;23.30;13.10;;;;;;;4.44;100.00;98405.57;106373;1257;99122;-79
2024/01/03 04:38:14;;;;;;;19.60;13.30;;;;;;;4.43;100.00;98403.15;106382;1257;97809;-80
2024/01/03 04:40:59;;;;;;;21.40;13.60;;;;;;;4.41;100.00;98399.41;106551;1257;96585;-81
2024/01/03 04:43:45;;;;;;;27.60;17.00;;;;;;;4.39;100.00;98394.14;106459;1257;96836;-79
2024/01/03 04:46:30;;;;;;;23.00;14.90;;;;;;;4.39;100.00;98392.10;106031;1260;101411;-81
2024/01/03 04:49:16;;;;;;;21.60;13.80;;;;;;;4.37;100.00;98391.41;105963;1258;99189;-80
2024/01/03 04:52:02;;;;;;;24.30;16.70;;;;;;;4.37;100.00;98388.30;106168;1257;97778;-79
2024/01/03 04:54:47;;;;;;;23.50;15.30;;;;;;;4.38;100.00;98385.54;106072;1260;96550;-80
2024/01/03 04:57:34;;;;;;;22.60;12.50;;;;;;;4.38;100.00;98382.64;106021;1260;96530;-80
2024/01/03 05:00:20;;;;;;;28.50;17.70;;;;;;;4.38;100.00;98381.11;105910;1257;100066;-80
2024/01/03 05:03:06;;;;;;;21.70;13.20;;;;;;;4.37;100.00;98380.32;105992;1257;100396;-80
2024/01/03 05:05:51;;;;;;;20.90;13.00;;;;;;;4.37;100.00;98382.61;106021;1260;98298;-78
2024/01/03 05:08:37;;;;;;;25.00;14.60;;;;;;;4.37;100.00;98384.11;106043;1260;97386;-80
2024/01/03 05:11:22;;;;;;;19.70;13.20;;;;;;;4.37;100.00;98380.64;106564;1260;96543;-79
2024/01/03 05:14:08;;;;;;;20.50;11.90;;;;;;;4.38;100.00;98375.80;106058;1261;101285;-81
2024/01/03 05:16:53;;;;;;;22.20;12.30;;;;;;;4.39;100.00;98370.54;105909;1257;99169;-81
2024/01/03 05:19:39;;;;;;;22.50;12.60;;;;;;;4.40;100.00;98361.92;105917;1257;98993;-81
2024/01/03 05:22:24;;;;;;;24.40;15.80;;;;;;;4.41;100.00;98358.17;107476;1257;96553;-81
2024/01/03 05:25:10;;;;;;;18.50;12.10;;;;;;;4.41;100.00;98359.69;106079;1257;97726;-80
2024/01/03 05:27:55;;;;;;;21.90;14.70;;;;;;;4.40;100.00;98353.08;106068;1258;100001;-80
2024/01/03 05:30:41;;;;;;;21.80;12.50;;;;;;;4.40;100.00;98351.82;106006;1261;99131;-81
2024/01/03 05:33:26;;;;;;;18.60;12.20;;;;;;;4.43;100.00;98349.79;105953;1261;97913;-80
2024/01/03 05:36:12;;;;;;;23.30;13.90;;;;;;;4.45;100.00;98347.29;106052;1257;96295;-80
2024/01/03 05:38:58;;;;;;;23.10;13.90;;;;;;;4.45;100.00;98346.73;106085;1257;97113;-78
2024/01/03 05:41:43;;;;;;;26.50;16.90;;;;;;;4.44;100.00;98348.11;105994;1258;100217;-79
2024/01/03 05:44:29;;;;;;;26.30;15.70;;;;;;;4.44;100.00;98347.34;106069;1258;99139;-80
2024/01/03 05:47:14;;;;;;;25.20;18.80;;;;;;;4.45;100.00;98349.30;105900;1257;97799;-80
2024/01/03 05:49:59;;;;;;;22.50;16.90;;;;;;;4.45;100.00;98348.40;106446;1260;96585;-81
2024/01/03 05:52:45;;;;;;;22.70;16.30;;;;;;;4.44;100.00;98347.63;106512;1260;96623;-81
2024/01/03 05:55:31;;;;;;;19.40;12.50;;;;;;;4.45;100.00;98345.33;105895;1258;100221;-79
2024/01/03 05:58:16;;;;;;;24.70;16.90;;;;;;;4.45;100.00;98349.00;105934;1258;100456;-79
2024/01/03 06:01:02;;;;;;;27.60;19.20;;;;;;;4.47;100.00;98345.84;105873;1255;98982;-79
2024/01/03 06:03:49;;;;;;;27.50;17.10;;;;;;;4.48;100.00;98341.40;105639;1259;96704;-78
2024/01/03 06:06:34;;;;;;;23.40;13.10;;;;;;;4.49;100.00;98342.09;108136;1257;94451;-79
2024/01/03 06:09:20;;;;;;;32.30;21.50;;;;;;;4.50;100.00;98342.00;106145;1260;99952;-80
2024/01/03 06:12:07;;;;;;;20.30;15.60;;;;;;;4.52;100.00;98337.79;106374;1260;100579;-80
2024/01/03 06:14:52;;;;;;;19.60;13.60;;;;;;;4.55;100.00;98331.43;105801;1260;97699;-81
2024/01/03 06:17:38;;;;;;;17.50;13.10;;;;;;;4.55;100.00;98328.42;106293;1256;96554;-82
2024/01/03 06:20:24;;;;;;;13.30;9.70;;;;;;;4.55;100.00;98327.52;106347;1258;97081;-80
2024/01/03 06:23:09;;;;;;;18.60;12.80;;;;;;;4.55;100.00;98327.37;106393;1257;101356;-81
2024/01/03 06:25:55;;;;;;;17.00;12.60;;;;;;;4.55;100.00;98328.42;105860;1260;100417;-80
2024/01/03 06:28:40;;;;;;;18.00;12.70;;;;;;;4.56;100.00;98326.79;105716;1258;99054;-79
2024/01/03 06:31:26;;;;;;;18.00;12.10;;;;;;;4.55;100.00;98329.08;105844;1256;96632;-78
2024/01/03 06:34:12;;;;;;;16.50;11.90;;;;;;;4.57;100.00;98325.16;105830;1257;97158;-80
2024/01/03 06:37:00;;;;;;;14.80;10.90;;;;;;;4.58;100.00;98322.11;105993;1256;100182;-81
2024/01/03 06:39:45;;;;;;;15.80;11.90;;;;;;;4.60;100.00;98315.70;105989;1258;99172;-80
2024/01/03 06:42:31;;;;;;;15.90;11.20;;;;;;;4.61;100.00;98313.29;105892;1257;98990;-80
2024/01/03 06:45:16;;;;;;;15.50;12.20;;;;;;;4.61;100.00;98309.27;106445;1257;96639;-79
2024/01/03 06:48:02;;;;;;;17.40;12.10;;;;;;;4.61;100.00;98308.02;105978;1257;96414;-80
2024/01/03 06:50:48;;;;;;;17.20;13.10;;;;;;;4.60;100.00;98312.51;105809;1260;100787;-79
2024/01/03 06:53:34;;;;;;;22.30;14.60;;;;;;;4.59;100.00;98313.73;106458;1257;99140;-80
2024/01/03 06:56:24;;;;;;;23.70;14.80;;;;;;;4.60;100.00;98312.39;106613;1260;97754;-79
2024/01/03 06:59:10;;;;;;;24.10;17.50;;;;;;;4.61;100.00;98305.70;106434;1257;96535;-80
2024/01/03 07:01:56;;;;;;;21.20;15.50;;;;;;;4.62;100.00;98306.23;106437;1258;96636;-80
2024/01/03 07:04:41;;;;;;;19.90;14.70;;;;;;;4.66;100.00;98304.81;106476;1258;101749;-81
2024/01/03 07:07:26;;;;;;;28.30;18.10;;;;;;;4.69;100.00;98301.62;106495;1260;100715;-80
2024/01/03 07:10:12;;;;;;;33.70;22.30;;;;;;;4.71;100.00;98300.68;106072;1260;97724;-80
2024/01/03 07:12:58;;;;;;;29.70;18.20;;;;;;;4.72;100.00;98302.63;106005;1257;96612;-81
2024/01/03 07:15:44;;;;;;;24.50;16.30;;;;;;;4.71;100.00;98301.54;106186;1258;97488;-79
2024/01/03 07:18:30;;;;;;;22.10;15.40;;;;;;;4.70;100.00;98300.27;106377;1257;100488;-80
2024/01/03 07:21:16;;;;;;;15.70;11.30;;;;;;;4.69;100.00;98295.66;105781;1260;99064;-79
2024/01/03 07:24:01;;;;;;;25.30;15.00;;;;;;;4.67;100.00;98297.27;105694;1260;97707;-80
2024/01/03 07:26:47;;;;;;;27.70;15.40;;;;;;;4.67;100.00;98295.13;105610;1257;97445;-79
2024/01/03 07:29:32;;;;;;;24.00;14.80;;;;;;;4.67;100.00;98294.56;105749;1257;96839;-79
2024/01/03 07:32:17;;;;;;;45.60;25.60;;;;;;;4.69;100.00;98293.63;105566;1260;100193;-80
2024/01/03 07:35:03;;;;;;;47.10;24.60;;;;;;;4.73;100.00;98293.54;105660;1257;100501;-79
2024/01/03 07:37:49;;;;;;;66.90;33.20;;;;;;;4.75;100.00;98288.44;105600;1261;99080;-79
2024/01/03 07:40:35;;;;;;;59.80;29.70;;;;;;;4.77;100.00;98288.97;105722;1261;96626;-80
2024/01/03 07:43:20;;;;;;;29.70;19.40;;;;;;;4.78;100.00;98287.54;105660;1257;96618;-78
2024/01/03 07:46:06;;;;;;;18.80;12.50;;;;;;;4.79;100.00;98288.38;105641;1260;101065;-79
2024/01/03 07:48:51;;;;;;;16.20;11.50;;;;;;;4.80;100.00;98285.48;105602;1257;99351;-79
2024/01/03 07:51:38;;;;;;;19.40;13.00;;;;;;;4.82;100.00;98286.43;105493;1261;99098;-78
2024/01/03 07:54:23;;;;;;;25.70;16.80;;;;;;;4.86;100.00;98286.13;105555;1260;97917;-80
2024/01/03 07:57:09;;;;;;;23.70;18.90;;;;;;;4.88;100.00;98285.27;105539;1260;96523;-79
2024/01/03 07:59:55;;;;;;;21.50;17.30;;;;;;;4.88;100.00;98283.77;105693;1260;101101;-79
2024/01/03 08:02:40;;;;;;;17.40;14.50;;;;;;;4.91;100.00;98284.02;105745;1257;100667;-80
2024/01/03 08:05:26;;;;;;;21.10;17.40;;;;;;;4.94;100.00;98274.73;105727;1258;97497;-80
2024/01/03 08:08:11;;;;;;;20.30;15.10;;;;;;;4.96;100.00;98275.02;105681;1260;96816;-79
2024/01/03 08:10:57;;;;;;;18.20;14.40;;;;;;;4.98;100.00;98272.41;105536;1263;96679;-79
2024/01/03 08:13:42;;;;;;;46.60;30.20;;;;;;;5.00;100.00;98265.11;105699;1260;100078;-79
2024/01/03 08:16:28;;;;;;;38.50;23.90;;;;;;;5.00;100.00;98254.40;105567;1260;100386;-80
2024/01/03 08:19:13;;;;;;;39.80;24.00;;;;;;;5.01;100.00;98256.39;105599;1256;97768;-79
2024/01/03 08:22:00;;;;;;;31.30;19.70;;;;;;;5.03;100.00;98258.30;105600;1257;97480;-78
2024/01/03 08:24:46;;;;;;;23.10;16.90;;;;;;;5.05;100.00;98256.91;105746;1261;97358;-79
2024/01/03 08:27:36;;;;;;;59.40;38.70;;;;;;;5.07;100.00;98261.20;105632;1256;100925;-79
2024/01/03 08:30:22;;;;;;;27.50;19.80;;;;;;;5.08;100.00;98260.09;105693;1255;100532;-78
2024/01/03 08:33:07;;;;;;;20.10;15.50;;;;;;;5.07;100.00;98260.02;105745;1257;97800;-78
2024/01/03 08:35:52;;;;;;;17.70;13.10;;;;;;;5.05;100.00;98260.39;105587;1257;96561;-79
2024/01/03 08:38:38;;;;;;;17.30;13.10;;;;;;;5.06;100.00;98258.95;105475;1260;98485;-79
2024/01/03 08:41:24;;;;;;;24.40;15.50;;;;;;;5.06;100.00;98260.30;105311;1257;101315;-78
2024/01/03 08:44:09;;;;;;;28.70;20.60;;;;;;;5.05;100.00;98261.89;105569;1260;99258;-79
2024/01/03 08:46:55;;;;;;;34.20;25.00;;;;;;;5.04;100.00;98261.36;105634;1264;98606;-78
2024/01/03 08:49:42;;;;;;;25.10;18.80;;;;;;;5.05;100.00;98260.75;105590;1257;97523;-78
2024/01/03 08:52:28;;;;;;;21.20;15.90;;;;;;;5.08;100.00;98258.42;105646;1257;97919;-78
2024/01/03 08:55:13;;;;;;;21.80;15.60;;;;;;;5.10;100.00;98255.77;105449;1257;100690;-79
2024/01/03 08:57:59;;;;;;;18.30;14.90;;;;;;;5.13;100.00;98255.06;105624;1257;99249;-79
2024/01/03 09:00:45;;;;;;;18.00;13.40;;;;;;;5.16;100.00;98256.56;105505;1260;97795;-78
2024/01/03 09:03:30;;;;;;;19.20;13.80;;;;;;;5.18;100.00;98249.45;105576;1257;97080;-78
2024/01/03 09:06:25;;;;;;;27.30;19.60;;;;;;;5.19;100.00;98247.77;105570;1260;96810;-78
2024/01/03 09:09:10;;;;;;;26.40;19.50;;;;;;;5.20;100.00;98246.22;105538;1257;101303;-78
2024/01/03 09:11:56;;;;;;;16.50;13.50;;;;;;;5.20;100.00;98248.25;105633;1261;99284;-78
2024/01/03 09:14:42;;;;;;;23.00;16.90;;;;;;;5.20;100.00;98248.42;105410;1257;98356;-79
2024/01/03 09:17:28;;;;;;;18.90;14.00;;;;;;;5.21;100.00;98246.13;105488;1257;96593;-78
2024/01/03 09:20:15;;;;;;;22.80;16.10;;;;;;;5.23;100.00;98240.27;105503;1257;97386;-78
2024/01/03 09:23:01;;;;;;;28.30;21.70;;;;;;;5.25;100.00;98237.70;105397;1257;100825;-78
2024/01/03 09:25:46;;;;;;;23.30;18.00;;;;;;;5.28;100.00;98230.75;105591;1257;100103;-77
2024/01/03 09:28:34;;;;;;;21.20;16.40;;;;;;;5.30;100.00;98233.59;105685;1260;98720;-79
2024/01/03 09:31:20;;;;;;;23.10;15.20;;;;;;;5.32;100.00;98237.09;105704;1260;97893;-78
2024/01/03 09:34:05;;;;;;;19.10;13.50;;;;;;;5.34;100.00;98231.21;105849;1257;97791;-79
2024/01/03 09:36:53;;;;;;;18.90;12.60;;;;;;;5.38;100.00;98228.79;105946;1260;100051;-79
2024/01/03 09:39:40;;;;;;;15.80;12.30;;;;;;;5.39;100.00;98227.02;106018;1257;100459;-79
2024/01/03 09:42:27;;;;;;;17.30;12.40;;;;;;;5.41;100.00;98232.77;105832;1257;98379;-80
2024/01/03 09:45:13;;;;;;;18.90;15.60;;;;;;;5.45;100.00;98230.42;106157;1257;97070;-77
2024/01/03 09:47:59;;;;;;;21.80;14.50;;;;;;;5.50;100.00;98229.79;105546;1257;97575;-81
2024/01/03 09:50:45;;;;;;;18.20;13.90;;;;;;;5.52;100.00;98231.71;105719;1261;100056;-78
2024/01/03 09:53:31;;;;;;;40.80;21.40;;;;;;;5.53;100.00;98225.86;105614;1260;100392;-77
2024/01/03 09:56:16;;;;;;;35.90;22.50;;;;;;;5.54;100.00;98227.65;106076;1258;98771;-79
2024/01/03 09:59:02;;;;;;;29.20;18.50;;;;;;;5.55;100.00;98224.34;105576;1261;96423;-79
2024/01/03 10:01:58;;;;;;;40.70;23.40;;;;;;;5.57;100.00;98222.45;105679;1260;97140;-79
2024/01/03 10:04:46;;;;;;;41.10;22.30;;;;;;;5.61;100.00;98218.74;105918;1258;100143;-81
2024/01/03 10:07:35;;;;;;;44.10;24.40;;;;;;;5.65;100.00;98217.81;105561;1257;100417;-79
2024/01/03 10:10:47;;;;;;;155.50;59.10;;;;;;;5.67;100.00;98216.22;105802;1260;99027;-82
2024/01/03 10:13:32;;;;;;;143.80;59.20;;;;;;;5.70;100.00;98218.08;106304;1257;96627;-79
2024/01/03 10:16:23;;;;;;;136.90;57.20;;;;;;;5.73;100.00;98217.84;105739;1258;97183;-79
2024/01/03 10:19:13;;;;;;;77.70;39.70;;;;;;;5.75;100.00;98215.23;105728;1260;100091;-80
2024/01/03 10:21:59;;;;;;;62.00;32.90;;;;;;;5.78;100.00;98214.73;105759;1258;99598;-80
2024/01/03 10:24:48;;;;;;;53.40;29.80;;;;;;;5.81;100.00;98215.84;105718;1256;98453;-80
2024/01/03 10:27:33;;;;;;;81.70;40.40;;;;;;;5.84;100.00;98215.73;105841;1257;97883;-79
2024/01/03 10:30:19;;;;;;;48.20;30.70;;;;;;;5.87;100.00;98215.39;106062;1257;97081;-79
2024/01/03 10:33:07;;;;;;;142.90;62.60;;;;;;;5.90;100.00;98217.77;106220;1257;100119;-81
2024/01/03 10:35:53;;;;;;;72.40;40.30;;;;;;;5.92;100.00;98227.89;106627;1260;100349;-79
2024/01/03 10:38:41;;;;;;;32.20;22.40;;;;;;;5.91;100.00;98225.09;106462;1261;98957;-81
2024/01/03 10:41:26;;;;;;;27.50;19.20;;;;;;;5.90;100.00;98224.19;106775;1257;97361;-80
2024/01/03 10:44:16;;;;;;;22.10;16.10;;;;;;;5.88;100.00;98223.30;106626;1257;96571;-81
2024/01/03 10:47:01;;;;;;;22.40;14.90;;;;;;;5.86;100.00;98225.29;106614;1256;99996;-80
2024/01/03 10:49:47;;;;;;;19.40;13.60;;;;;;;5.83;100.00;98224.80;106663;1260;99128;-82
2024/01/03 10:52:37;;;;;;;18.50;13.40;;;;;;;5.78;100.00;98221.34;106722;1257;98317;-80
2024/01/03 10:55:27;;;;;;;18.00;12.70;;;;;;;5.77;100.00;98223.92;108246;1258;94426;-81
2024/01/03 10:58:20;;;;;;;17.60;13.60;;;;;;;5.75;100.00;98221.73;108247;1257;94418;-85
2024/01/03 11:01:28;;;;;;;18.30;13.40;;;;;;;5.79;100.00;98211.61;106080;1260;101333;-84
2024/01/03 11:04:30;;;;;;;22.50;15.10;;;;;;;5.83;100.00;98207.02;105692;1260;99152;-79
2024/01/03 11:07:25;;;;;;;21.30;15.00;;;;;;;5.90;100.00;98206.66;105937;1257;97763;-78
2024/01/03 11:10:46;;;;;;;24.40;15.40;;;;;;;5.97;100.00;98204.20;106478;1257;96835;-80
2024/01/03 11:13:33;;;;;;;24.90;16.60;;;;;;;6.02;100.00;98202.25;105658;1257;96552;-79
2024/01/03 11:16:39;;;;;;;28.50;20.60;;;;;;;6.07;100.00;98206.09;105658;1257;100088;-79
2024/01/03 11:19:30;;;;;;;34.90;26.20;;;;;;;6.13;100.00;98205.48;106655;1259;99176;-79
2024/01/03 11:22:16;;;;;;;48.00;30.90;;;;;;;6.17;100.00;98201.52;106470;1257;99140;-80
2024/01/03 11:25:01;;;;;;;42.80;29.90;;;;;;;6.21;100.00;98200.85;106383;1257;96534;-80
2024/01/03 11:27:46;;;;;;;39.00;24.50;;;;;;;6.27;100.00;98198.93;106501;1258;96424;-80
2024/01/03 11:30:42;;;;;;;41.50;26.30;;;;;;;6.31;100.00;98197.06;106244;1260;100777;-80
2024/01/03 11:33:30;;;;;;;29.00;20.90;;;;;;;6.37;100.00;98196.73;106665;1257;100397;-80
2024/01/03 11:36:44;;;;;;;27.10;18.70;;;;;;;6.41;100.00;98190.79;107083;1258;98923;-80
2024/01/03 11:39:42;;;;;;;28.20;19.90;;;;;;;6.46;100.00;98184.08;106036;1257;98242;-80
2024/01/03 11:42:41;;;;;;;26.10;17.80;;;;;;;6.53;100.00;98184.73;106365;1260;97140;-80
2024/01/03 11:45:27;;;;;;;28.00;18.10;;;;;;;6.61;100.00;98190.36;106143;1260;101321;-79
2024/01/03 11:48:21;;;;;;;29.10;18.80;;;;;;;6.68;100.00;98185.28;106151;1260;99271;-80
2024/01/03 11:51:24;;;;;;;27.40;17.80;;;;;;;6.74;100.00;98177.41;106514;1257;99028;-80
2024/01/03 11:54:09;;;;;;;19.50;13.20;;;;;;;6.84;100.00;98184.55;106576;1257;96600;-80
2024/01/03 11:56:56;;;;;;;20.80;13.00;;;;;;;6.95;100.00;98184.71;106177;1257;96753;-80
2024/01/03 11:59:42;;;;;;;14.30;9.00;;;;;;;7.09;100.00;98180.86;106062;1260;100472;-80
2024/01/03 12:02:28;;;;;;;12.90;7.80;;;;;;;7.23;100.00;98182.37;106086;1258;99275;-80
2024/01/03 12:05:14;;;;;;;11.30;6.70;;;;;;;7.35;100.00;98180.94;105941;1257;98463;-80
2024/01/03 12:08:00;;;;;;;10.40;5.30;;;;;;;7.45;100.00;98184.79;106163;1257;96611;-80
2024/01/03 12:10:46;;;;;;;8.10;4.90;;;;;;;7.55;100.00;98184.38;106683;1257;96629;-80
2024/01/03 12:13:31;;;;;;;7.30;4.30;;;;;;;7.63;100.00;98186.34;106140;1257;100340;-80
2024/01/03 12:16:17;;;;;;;13.60;6.40;;;;;;;7.69;100.00;98178.58;106138;1259;99286;-80
2024/01/03 12:19:06;;;;;;;8.10;4.50;;;;;;;7.75;100.00;98190.94;106239;1259;97722;-80
2024/01/03 12:21:56;;;;;;;8.10;4.20;;;;;;;7.78;100.00;98199.69;106218;1258;96604;-79
2024/01/03 12:24:43;;;;;;;25.00;11.60;;;;;;;7.80;100.00;98189.45;106192;1261;97137;-80
2024/01/03 12:27:31;;;;;;;32.80;15.70;;;;;;;7.82;100.00;98186.52;106173;1258;101112;-81
2024/01/03 12:30:18;;;;;;;11.10;6.00;;;;;;;7.84;100.00;98189.50;106644;1258;99869;-79
2024/01/03 12:33:11;;;;;;;9.40;5.10;;;;;;;7.85;100.00;98187.45;106359;1258;98933;-80
2024/01/03 12:36:01;;;;;;;10.00;4.60;;;;;;;7.86;100.00;98189.77;105680;1260;97298;-79